메인 페이지
METAR-TAF:

METAR-TAF

공항 :

반다르아바스, 이란

위도: 27-13N, 경도: 056-22E, 고도: 10m

현재 날씨관측

예보는 11분 전, 17:30시(UTC)에 발표되었습니다.
남서4kt
온도 35°C
습도 47%
기압 1003 hPa
시정: 1500m
고도 10000ft 상공 구름 조금
황사

METAR: OIKB 311730Z 22004KT 1500 DU FEW100 35/22 Q1002 A2961

시각: 22:11 (17:41 UTC)

예보

예보는 6 시간 11분 전, 11:30시(UTC)에 발표되었습니다.
예보 대상 시간: 31일 12시부터 01일 18시까지 (UTC)
8kt
시정: 1500m
황사
일시적
31일 12시부터 31일 15시까지 (UTC)
서남서16kt
전환 중
31일 16시부터 31일 17시까지 (UTC)
시정: 5000m
연무
확률 40%
31일 23시부터 01일 03시까지 (UTC)
시정: 3000m
박무

TAF: OIKB 311130Z 3112/0118 19008KT 1500 DU NSC TEMPO 3112/3115 25016KT BECMG 3116/3117 5000 HZ PROB40 3123/0103 3000 BR

4,000개 이상의 공항 관측 자료 및 예보 (METAR 및 TAF 보고).

지도상에서 검색 가능한 기상관측소가 노란 점과 빨간 점으로 표시되어 있습니다.

기상관측소 명을 보려면 표시 위로 마우스를 이동하세요.

날씨 관측과 예보를 보려면 클릭하세요.

지도 변경 : 확대하려면 엑스 표시가 있는 녹색 버튼, 축소하려면 빼기 표시가 있는 녹색 버튼, 다음 페이지의 지도를 보려면 녹색 화살표를 클릭하세요.


METAR-TAF: